地図

経路データ

SID SEASON NUMBER BASIN SUBBASIN NAME ISO_TIME NATURE LAT LON WMO_WIND WMO_PRES WMO_AGENCY TRACK_TYPE DIST2LAND LANDFALL IFLAG USA_AGENCY USA_ATCF_ID USA_LAT USA_LON USA_RECORD USA_STATUS USA_WIND USA_PRES USA_SSHS USA_R34_NE USA_R34_SE USA_R34_SW USA_R34_NW USA_R50_NE USA_R50_SE USA_R50_SW USA_R50_NW USA_R64_NE USA_R64_SE USA_R64_SW USA_R64_NW USA_POCI USA_ROCI USA_RMW USA_EYE TOKYO_LAT TOKYO_LON TOKYO_GRADE TOKYO_WIND TOKYO_PRES TOKYO_R50_DIR TOKYO_R50_LONG TOKYO_R50_SHORT TOKYO_R30_DIR TOKYO_R30_LONG TOKYO_R30_SHORT TOKYO_LAND CMA_LAT CMA_LON CMA_CAT CMA_WIND CMA_PRES HKO_LAT HKO_LON HKO_CAT HKO_WIND HKO_PRES NEWDELHI_LAT NEWDELHI_LON NEWDELHI_GRADE NEWDELHI_WIND NEWDELHI_PRES NEWDELHI_CI NEWDELHI_DP NEWDELHI_POCI REUNION_LAT REUNION_LON REUNION_TYPE REUNION_WIND REUNION_PRES REUNION_TNUM REUNION_CI REUNION_RMW REUNION_R34_NE REUNION_R34_SE REUNION_R34_SW REUNION_R34_NW REUNION_R50_NE REUNION_R50_SE REUNION_R50_SW REUNION_R50_NW REUNION_R64_NE REUNION_R64_SE REUNION_R64_SW REUNION_R64_NW BOM_LAT BOM_LON BOM_TYPE BOM_WIND BOM_PRES BOM_TNUM BOM_CI BOM_RMW BOM_R34_NE BOM_R34_SE BOM_R34_SW BOM_R34_NW BOM_R50_NE BOM_R50_SE BOM_R50_SW BOM_R50_NW BOM_R64_NE BOM_R64_SE BOM_R64_SW BOM_R64_NW BOM_ROCI BOM_POCI BOM_EYE BOM_POS_METHOD BOM_PRES_METHOD NADI_LAT NADI_LON NADI_CAT NADI_WIND NADI_PRES WELLINGTON_LAT WELLINGTON_LON WELLINGTON_WIND WELLINGTON_PRES DS824_LAT DS824_LON DS824_STAGE DS824_WIND DS824_PRES TD9636_LAT TD9636_LON TD9636_STAGE TD9636_WIND TD9636_PRES TD9635_LAT TD9635_LON TD9635_WIND TD9635_PRES TD9635_ROCI NEUMANN_LAT NEUMANN_LON NEUMANN_CLASS NEUMANN_WIND NEUMANN_PRES MLC_LAT MLC_LON MLC_CLASS MLC_WIND MLC_PRES USA_GUST BOM_GUST BOM_GUST_PER REUNION_GUST REUNION_GUST_PER USA_SEAHGT USA_SEARAD_NE USA_SEARAD_SE USA_SEARAD_SW USA_SEARAD_NW STORM_SPEED STORM_DIR
1984186N16256 1984 46 EP MM FAUSTO 1984-07-03 12:00:00 TS 15.8000 -103.900 30 hurdat_epa main 278 267 O_________O___ hurdat_epa EP061984 15.8000 -103.900 TD 30 -1 15.8000 -103.900 1 30 3 0
1984186N16256 1984 46 EP MM FAUSTO 1984-07-03 15:00:00 TS 15.9497 -103.922 main 267 253 P_________P___ EP061984 15.9494 -103.788 TD 35 0 15.9507 -104.325 1 33 4 317
1984186N16256 1984 46 EP MM FAUSTO 1984-07-03 18:00:00 TS 16.1002 -104.185 40 hurdat_epa main 257 253 O_________P___ hurdat_epa EP061984 16.1000 -104.000 TS 40 0 16.1008 -104.740 1 37 9 289
1984186N16256 1984 46 EP MM FAUSTO 1984-07-03 21:00:00 TS 16.2509 -104.818 main 262 262 P_________P___ EP061984 16.2511 -104.712 TS 42 0 16.2505 -105.136 1 41 13 283
1984186N16256 1984 46 EP MM FAUSTO 1984-07-04 00:00:00 TS 16.4000 -105.500 45 hurdat_epa main 300 300 O_________O___ hurdat_epa EP061984 16.4000 -105.500 TS 45 0 16.4000 -105.500 2 45 10 287
1984186N16256 1984 46 EP MM FAUSTO 1984-07-04 03:00:00 TS 16.5496 -105.863 main 323 307 P_________P___ EP061984 16.5495 -105.875 TS 47 0 16.5497 -105.826 2 47 7 297
1984186N16256 1984 46 EP MM FAUSTO 1984-07-04 06:00:00 TS 16.6999 -106.104 50 hurdat_epa main 311 306 O_________P___ hurdat_epa EP061984 16.7000 -106.100 TS 50 0 16.6997 -106.115 2 50 6 302
1984186N16256 1984 46 EP MM FAUSTO 1984-07-04 09:00:00 TS 16.8499 -106.367 main 317 304 P_________P___ EP061984 16.8500 -106.365 TS 52 0 16.8498 -106.372 2 52 6 302
1984186N16256 1984 46 EP MM FAUSTO 1984-07-04 12:00:00 TS 17.0000 -106.600 55 hurdat_epa main 311 309 O_________O___ hurdat_epa EP061984 17.0000 -106.600 TS 55 0 17.0000 -106.600 2 55 5 307
1984186N16256 1984 46 EP MM FAUSTO 1984-07-04 15:00:00 TS 17.1576 -106.800 main 307 307 P_________P___ EP061984 17.1574 -106.800 TS 60 0 17.1581 -106.799 2 60 5 308
1984186N16256 1984 46 EP MM FAUSTO 1984-07-04 18:00:00 TS 17.3000 -107.000 65 hurdat_epa main 314 314 O_________O___ hurdat_epa EP061984 17.3000 -107.000 HU 65 1 17.3000 -107.000 3 65 5 300
1984186N16256 1984 46 EP MM FAUSTO 1984-07-04 21:00:00 TS 17.4140 -107.262 main 330 330 P_________P___ EP061984 17.4151 -107.265 HU 70 1 17.4106 -107.254 3 70 5 293
1984186N16256 1984 46 EP MM FAUSTO 1984-07-05 00:00:00 TS 17.5000 -107.500 75 hurdat_epa main 338 337 O_________O___ hurdat_epa EP061984 17.5000 -107.500 HU 75 1 17.5000 -107.500 4 75 4 292
1984186N16256 1984 46 EP MM FAUSTO 1984-07-05 03:00:00 TS 17.5578 -107.632 main 337 337 P_________P___ EP061984 17.5499 -107.615 HU 77 1 17.5813 -107.681 4 76 2 298
1984186N16256 1984 46 EP MM FAUSTO 1984-07-05 06:00:00 TS 17.6133 -107.729 80 hurdat_epa main 345 345 O_________P___ hurdat_epa EP061984 17.6000 -107.700 HU 80 1 17.6533 -107.815 4 77 3 303
1984186N16256 1984 46 EP MM FAUSTO 1984-07-05 09:00:00 TS 17.7059 -107.872 main 353 346 P_________P___ EP061984 17.7000 -107.857 HU 80 1 17.7236 -107.916 4 78 3 306
1984186N16256 1984 46 EP MM FAUSTO 1984-07-05 12:00:00 TS 17.8000 -108.000 80 hurdat_epa main 354 354 O_________O___ hurdat_epa EP061984 17.8000 -108.000 HU 80 1 17.8000 -108.000 4 80 2 308
1984186N16256 1984 46 EP MM FAUSTO 1984-07-05 15:00:00 TS 17.8479 -108.064 main 363 356 P_________P___ EP061984 17.8425 -108.058 HU 85 2 17.8643 -108.081 4 83 2 316
1984186N16256 1984 46 EP MM FAUSTO 1984-07-05 18:00:00 TS 17.9100 -108.113 90 hurdat_epa main 356 350 O_________P___ hurdat_epa EP061984 17.9000 -108.100 HU 90 2 17.9399 -108.150 4 87 2 325
1984186N16256 1984 46 EP MM FAUSTO 1984-07-05 21:00:00 TS 18.0264 -108.194 main 359 353 P_________P___ EP061984 18.0200 -108.185 HU 92 2 18.0456 -108.219 4 91 3 328
1984186N16256 1984 46 EP MM FAUSTO 1984-07-06 00:00:00 TS 18.2000 -108.300 95 hurdat_epa main 356 350 O_________O___ hurdat_epa EP061984 18.2000 -108.300 HU 95 2 18.2000 -108.300 4 95 5 330
1984186N16256 1984 46 EP MM FAUSTO 1984-07-06 03:00:00 TS 18.4278 -108.437 main 353 351 P_________P___ EP061984 18.4275 -108.450 HU 95 2 18.4287 -108.398 4 95 6 332
1984186N16256 1984 46 EP MM FAUSTO 1984-07-06 06:00:00 TS 18.7012 -108.578 95 hurdat_epa main 356 346 O_________P___ hurdat_epa EP061984 18.7000 -108.600 HU 95 2 18.7049 -108.513 4 95 6 337
1984186N16256 1984 46 EP MM FAUSTO 1984-07-06 09:00:00 TS 18.9953 -108.686 main 350 341 P_________P___ EP061984 18.9925 -108.700 HU 95 2 19.0037 -108.645 4 95 6 341
1984186N16256 1984 46 EP MM FAUSTO 1984-07-06 12:00:00 TS 19.3000 -108.800 95 hurdat_epa main 346 342 O_________O___ hurdat_epa EP061984 19.3000 -108.800 HU 95 2 19.3000 -108.800 4 95 7 338
1984186N16256 1984 46 EP MM FAUSTO 1984-07-06 15:00:00 TS 19.6026 -108.940 main 346 343 P_________P___ EP061984 19.6150 -108.928 HU 92 2 19.5653 -108.978 4 93 7 333
1984186N16256 1984 46 EP MM FAUSTO 1984-07-06 18:00:00 TS 19.8806 -109.119 90 hurdat_epa main 343 317 O_________P___ hurdat_epa EP061984 19.9000 -109.100 HU 90 2 19.8225 -109.177 4 92 6 323
1984186N16256 1984 46 EP MM FAUSTO 1984-07-06 21:00:00 TS 20.1034 -109.348 main 317 291 P_________P___ EP061984 20.1150 -109.335 HU 90 2 20.0685 -109.388 4 91 6 313
1984186N16256 1984 46 EP MM FAUSTO 1984-07-07 00:00:00 TS 20.3000 -109.600 90 hurdat_epa main 291 268 O_________O___ hurdat_epa EP061984 20.3000 -109.600 HU 90 2 20.3000 -109.600 4 90 6 310
1984186N16256 1984 46 EP MM FAUSTO 1984-07-07 03:00:00 TS 20.5026 -109.848 main 268 245 P_________P___ EP061984 20.5000 -109.865 HU 90 2 20.5102 -109.796 4 90 6 312
1984186N16256 1984 46 EP MM FAUSTO 1984-07-07 06:00:00 TS 20.7018 -110.073 90 hurdat_epa main 246 224 O_________P___ hurdat_epa EP061984 20.7000 -110.100 HU 90 2 20.7073 -109.993 4 90 5 317
1984186N16256 1984 46 EP MM FAUSTO 1984-07-07 09:00:00 TS 20.9002 -110.247 main 224 205 P_________P___ EP061984 20.8999 -110.265 HU 90 2 20.9008 -110.193 4 90 5 322
1984186N16256 1984 46 EP MM FAUSTO 1984-07-07 12:00:00 TS 21.1000 -110.400 90 hurdat_epa main 205 186 O_________O___ hurdat_epa EP061984 21.1000 -110.400 HU 90 2 21.1000 -110.400 4 90 5 325
1984186N16256 1984 46 EP MM FAUSTO 1984-07-07 15:00:00 TS 21.2946 -110.545 main 186 172 P_________P___ EP061984 21.2924 -110.528 HU 87 2 21.3013 -110.598 4 87 5 323
1984186N16256 1984 46 EP MM FAUSTO 1984-07-07 18:00:00 TS 21.5030 -110.726 85 hurdat_epa main 172 162 O_________P___ hurdat_epa EP061984 21.5000 -110.700 HU 85 2 21.5121 -110.806 4 85 6 317
1984186N16256 1984 46 EP MM FAUSTO 1984-07-07 21:00:00 TS 21.7311 -110.987 main 169 158 P_________P___ EP061984 21.7275 -110.970 HU 82 1 21.7418 -111.036 4 82 7 313
1984186N16256 1984 46 EP MM FAUSTO 1984-07-08 00:00:00 TS 22.0000 -111.300 80 hurdat_epa main 167 167 O_________O___ hurdat_epa EP061984 22.0000 -111.300 HU 80 1 22.0000 -111.300 4 80 9 315
1984186N16256 1984 46 EP MM FAUSTO 1984-07-08 03:00:00 TS 22.3370 -111.630 main 177 173 P_________P___ EP061984 22.3425 -111.642 HU 75 1 22.3204 -111.593 4 73 9 318
1984186N16256 1984 46 EP MM FAUSTO 1984-07-08 06:00:00 TS 22.6911 -111.981 70 hurdat_epa main 180 171 O_________P___ hurdat_epa EP061984 22.7000 -112.000 HU 70 1 22.6646 -111.925 4 67 9 316
1984186N16256 1984 46 EP MM FAUSTO 1984-07-08 09:00:00 TS 23.0059 -112.330 main 171 156 P_________P___ EP061984 23.0074 -112.343 HU 62 0 23.0015 -112.293 4 61 9 313
1984186N16256 1984 46 EP MM FAUSTO 1984-07-08 12:00:00 TS 23.3000 -112.700 55 hurdat_epa main 162 153 O_________O___ hurdat_epa EP061984 23.3000 -112.700 TS 55 0 23.3000 -112.700 2 55 9 311
1984186N16256 1984 46 EP MM FAUSTO 1984-07-08 15:00:00 TS 23.6157 -113.090 main 159 157 P_________P___ EP061984 23.6373 -113.070 TS 50 0 23.5509 -113.151 2 51 10 306
1984186N16256 1984 46 EP MM FAUSTO 1984-07-08 18:00:00 TS 23.8638 -113.534 45 hurdat_epa main 165 165 O_________P___ hurdat_epa EP061984 23.9000 -113.500 TS 45 0 23.7554 -113.635 2 47 10 292
1984186N16256 1984 46 EP MM FAUSTO 1984-07-08 21:00:00 TS 23.9732 -114.064 main 212 212 P_________P___ EP061984 23.9952 -114.043 TS 42 0 23.9071 -114.126 2 43 10 278
1984186N16256 1984 46 EP MM FAUSTO 1984-07-09 00:00:00 TS 24.0000 -114.600 40 hurdat_epa main 258 258 O_________O___ hurdat_epa EP061984 24.0000 -114.600 TS 40 0 24.0000 -114.600 2 40 9 273
1984186N16256 1984 46 EP MM FAUSTO 1984-07-09 03:00:00 TS 24.0181 -115.066 main 306 306 P_________P___ EP061984 24.0148 -115.080 TS 35 0 24.0278 -115.023 2 37 8 270
1984186N16256 1984 46 EP MM FAUSTO 1984-07-09 06:00:00 TS 24.0004 -115.481 30 hurdat_epa main 345 345 O_________P___ hurdat_epa EP061984 24.0000 -115.500 TD 30 -1 24.0017 -115.424 2 35 7 265
1984186N16256 1984 46 EP MM FAUSTO 1984-07-09 09:00:00 TS 23.9498 -115.846 main 378 378 P_________P___ EP061984 23.9498 -115.858 TD 30 -1 23.9498 -115.813 2 32 7 261
1984186N16256 1984 46 EP MM FAUSTO 1984-07-09 12:00:00 TS 23.9000 -116.200 30 hurdat_epa main 407 407 O_________O___ hurdat_epa EP061984 23.9000 -116.200 TD 30 -1 23.9000 -116.200 1 30 7 265
1984186N16256 1984 46 EP MM FAUSTO 1984-07-09 15:00:00 TS 23.8879 -116.593 main 429 429 P_________P___ EP061984 23.8925 -116.592 TD 27 -1 23.8744 -116.593 1 28 7 269
1984186N16256 1984 46 EP MM FAUSTO 1984-07-09 18:00:00 TS 23.8928 -116.998 25 hurdat_epa main 451 451 O_________P___ hurdat_epa EP061984 23.9000 -117.000 TD 25 -1 23.8710 -116.992 1 27 7 271
1984186N16256 1984 46 EP MM FAUSTO 1984-07-09 21:00:00 TS 23.8975 -117.401 main 475 475 P_________P___ EP061984 23.9027 -117.403 TD 25 -1 23.8822 -117.395 1 26 7 271
1984186N16256 1984 46 EP MM FAUSTO 1984-07-10 00:00:00 TS 23.9000 -117.800 25 hurdat_epa main 502 O_________O___ hurdat_epa EP061984 23.9000 -117.800 TD 25 -1 23.9000 -117.800 1 25 7 270

IBTrACS Databaseについて

本データベースは、米国NOAAが公開する1842年以降の世界の熱帯低気圧のベストトラックデータアーカイブInternational Best Track Archive for Climate Stewardship (IBTrACS)を、ウェブで閲覧しやすい形式に変換したものです。

最終更新日:2021-10-08